createdAt,value
2022-12-08T00:59:39.693Z,1.80
2022-12-08T01:02:10.284Z,1.83
2022-12-08T01:04:42.437Z,1.80
2022-12-08T01:07:15.422Z,1.67
2022-12-08T01:09:52.400Z,1.60
2022-12-08T01:12:24.647Z,1.60
2022-12-08T01:15:02.301Z,1.57
2022-12-08T01:17:33.999Z,1.33
2022-12-08T01:20:05.652Z,1.60
2022-12-08T01:22:37.722Z,1.50
2022-12-08T01:25:11.629Z,1.63
2022-12-08T01:27:43.264Z,1.60
2022-12-08T01:30:20.903Z,1.40
2022-12-08T01:32:51.406Z,1.60
2022-12-08T01:35:22.250Z,1.37
2022-12-08T01:37:54.567Z,1.13
2022-12-08T01:40:27.195Z,1.60
2022-12-08T01:42:58.400Z,1.50
2022-12-08T01:45:32.764Z,1.40
2022-12-08T01:48:07.511Z,1.57
2022-12-08T01:50:39.428Z,1.50
2022-12-08T01:53:15.146Z,1.63
2022-12-08T01:55:49.734Z,1.40
2022-12-08T01:58:24.253Z,1.53
2022-12-08T02:00:58.403Z,1.20
2022-12-08T02:03:32.787Z,1.50
2022-12-08T02:06:05.949Z,1.50
2022-12-08T02:08:38.259Z,1.37
2022-12-08T02:11:12.498Z,1.27
2022-12-08T02:13:45.214Z,1.20
2022-12-08T02:16:30.090Z,1.23
2022-12-08T02:19:30.875Z,1.40
2022-12-08T02:22:07.599Z,1.30
2022-12-08T02:24:45.958Z,1.30
2022-12-08T02:27:42.341Z,1.03
2022-12-08T02:30:28.074Z,1.00
2022-12-08T02:33:28.859Z,1.37
2022-12-08T02:36:07.534Z,0.87
2022-12-08T02:38:53.502Z,1.13
2022-12-08T02:41:39.235Z,1.00
2022-12-08T02:44:38.329Z,1.00
2022-12-08T02:47:21.852Z,1.20
2022-12-08T02:50:00.651Z,1.10
2022-12-08T02:52:56.295Z,0.80
2022-12-08T02:55:32.960Z,1.10
2022-12-08T02:58:29.084Z,0.93
2022-12-08T03:01:19.649Z,1.10
2022-12-08T03:04:04.625Z,1.17
2022-12-08T03:06:46.174Z,1.10
2022-12-08T03:09:28.102Z,1.20
2022-12-08T03:12:05.888Z,1.03
2022-12-08T03:14:39.256Z,1.10
2022-12-08T03:17:15.597Z,0.83
2022-12-08T03:19:49.529Z,1.30
2022-12-08T03:22:26.060Z,1.10
2022-12-08T03:25:00.527Z,1.30
2022-12-08T03:27:32.460Z,1.27
2022-12-08T03:30:05.928Z,1.63
2022-12-08T03:32:41.910Z,1.50
2022-12-08T03:35:18.250Z,1.80
2022-12-08T03:37:49.244Z,1.37
2022-12-08T03:43:32.499Z,1.60
2022-12-08T03:46:06.984Z,1.60
2022-12-08T03:48:38.430Z,1.70
2022-12-08T03:51:16.745Z,1.43
2022-12-08T03:53:49.202Z,1.40
2022-12-08T03:56:30.181Z,1.20
2022-12-08T03:59:01.158Z,1.17
2022-12-08T04:01:33.797Z,1.20
2022-12-08T04:04:11.849Z,1.17
2022-12-08T04:06:42.896Z,1.23
2022-12-08T04:09:14.740Z,1.30
2022-12-08T04:11:50.453Z,1.40
2022-12-08T04:14:22.308Z,1.20
2022-12-08T04:16:55.478Z,1.20
2022-12-08T04:19:27.595Z,1.20
2022-12-08T04:24:44.642Z,1.20
2022-12-08T04:27:21.395Z,1.30
2022-12-08T04:29:59.372Z,1.40
2022-12-08T04:32:31.833Z,1.60
2022-12-08T04:35:03.185Z,1.30
2022-12-08T04:37:34.064Z,1.40
2022-12-08T04:40:05.523Z,1.60
2022-12-08T04:42:42.198Z,1.47
2022-12-08T04:45:16.597Z,1.47
2022-12-08T04:47:48.008Z,1.47
2022-12-08T04:50:18.735Z,1.27
2022-12-08T04:52:49.682Z,1.20
2022-12-08T04:55:20.826Z,1.17
2022-12-08T04:57:54.980Z,1.20
2022-12-08T05:00:28.782Z,0.97
2022-12-08T05:03:00.696Z,1.10
2022-12-08T05:05:32.751Z,1.20
2022-12-08T05:08:07.640Z,1.07
2022-12-08T05:10:39.752Z,1.10
2022-12-08T05:13:13.550Z,1.20
2022-12-08T05:15:45.143Z,1.20
2022-12-08T05:18:18.388Z,1.30
2022-12-08T05:20:49.996Z,1.00
2022-12-08T05:23:21.935Z,1.40
2022-12-08T05:25:53.686Z,1.30
2022-12-08T05:28:43.609Z,1.13
2022-12-08T05:31:17.694Z,1.10
2022-12-08T05:33:48.714Z,1.40
2022-12-08T05:36:20.024Z,0.90
2022-12-08T05:38:51.709Z,1.10
2022-12-08T05:41:24.493Z,1.27
2022-12-08T05:43:57.338Z,0.90
2022-12-08T05:46:28.352Z,0.90
2022-12-08T05:48:59.416Z,0.80
2022-12-08T05:51:30.827Z,1.10
2022-12-08T05:54:01.886Z,1.00
2022-12-08T05:56:33.235Z,1.17
2022-12-08T05:59:10.357Z,1.03
2022-12-08T06:01:42.263Z,1.00
2022-12-08T06:04:15.822Z,1.07
2022-12-08T06:06:47.496Z,1.37
2022-12-08T06:09:19.150Z,1.27
2022-12-08T06:11:50.844Z,1.07
2022-12-08T06:14:24.953Z,1.10
2022-12-08T06:16:59.916Z,1.17
2022-12-08T06:19:34.231Z,1.20
2022-12-08T06:22:05.442Z,1.30
2022-12-08T06:24:37.250Z,1.10
2022-12-08T06:27:08.432Z,1.00
2022-12-08T06:29:41.865Z,1.20
2022-12-08T06:32:14.346Z,1.17
2022-12-08T06:34:46.658Z,1.40
2022-12-08T06:37:18.415Z,1.40
2022-12-08T06:39:49.663Z,1.27
2022-12-08T06:42:37.346Z,1.20
2022-12-08T06:45:13.362Z,1.30
2022-12-08T06:47:44.992Z,1.10
2022-12-08T06:50:17.943Z,1.07
2022-12-08T06:52:59.594Z,1.17
2022-12-08T06:55:58.735Z,1.00
2022-12-08T06:58:28.649Z,1.20
2022-12-08T07:01:09.681Z,0.83
2022-12-08T07:03:41.728Z,1.23
2022-12-08T07:06:18.534Z,1.00
2022-12-08T07:08:49.539Z,0.97
2022-12-08T07:11:22.372Z,0.90
2022-12-08T07:13:56.117Z,1.13
2022-12-08T07:16:29.543Z,0.90
2022-12-08T07:19:02.508Z,1.23
2022-12-08T07:21:33.508Z,0.80
2022-12-08T07:24:05.015Z,0.93
2022-12-08T07:26:37.385Z,1.30
2022-12-08T07:29:08.442Z,0.80
2022-12-08T07:31:41.838Z,0.70
2022-12-08T07:34:16.055Z,1.13
2022-12-08T07:36:51.659Z,0.77
2022-12-08T07:39:22.601Z,1.10
2022-12-08T07:41:53.403Z,0.90
2022-12-08T07:44:24.827Z,1.00
2022-12-08T07:46:58.789Z,0.90
2022-12-08T07:49:34.254Z,0.70
2022-12-08T07:52:06.051Z,0.90
2022-12-08T07:54:37.912Z,0.70
2022-12-08T07:57:10.084Z,0.90
2022-12-08T07:59:44.446Z,0.80
2022-12-08T08:02:25.214Z,0.73
2022-12-08T08:04:58.055Z,0.80
2022-12-08T08:07:31.327Z,0.80
2022-12-08T08:10:03.256Z,1.03
2022-12-08T08:12:35.006Z,0.90
2022-12-08T08:15:08.695Z,1.00
2022-12-08T08:17:42.944Z,1.00
2022-12-08T08:20:15.644Z,0.87
2022-12-08T08:22:48.584Z,0.70
2022-12-08T08:25:20.923Z,0.70
2022-12-08T08:27:52.011Z,0.83
2022-12-08T08:30:23.862Z,0.60
2022-12-08T08:32:57.348Z,0.83
2022-12-08T08:35:29.023Z,0.70
2022-12-08T08:38:00.618Z,1.00
2022-12-08T08:40:33.571Z,0.70
2022-12-08T08:43:05.627Z,0.83
2022-12-08T08:45:37.374Z,0.87
